Time;durP1;ratioP1;P1;durP2;ratioP2;P2;SDS_P1;SDS_P2;PMS_P1;PMS_P2;Temp;Humidity;BMP_temperature;BMP_pressure;BME280_temperature;BME280_humidity;BME280_pressure;Samples;Min_cycle;Max_cycle;Signal;HPM_P1;HPM_P2
2023/08/18 00:01:36;;;;;;;3.63;1.20;;;;;;;;;;10361385;28;20041;-85
2023/08/18 00:06:41;;;;;;;1.20;0.80;;;;;;;;;;10395718;28;20176;-85
2023/08/18 00:11:44;;;;;;;3.58;1.15;;;;;;;;;;10380790;28;20046;-86
2023/08/18 00:16:47;;;;;;;2.70;0.85;;;;;;;;;;10370835;28;20041;-86
2023/08/18 00:21:52;;;;;;;2.13;1.00;;;;;;;;;;10371931;28;20594;-86
2023/08/18 00:26:55;;;;;;;2.42;0.85;;;;;;;;;;10377318;28;20038;-85
2023/08/18 00:32:00;;;;;;;1.70;0.93;;;;;;;;;;10373923;28;20128;-85
2023/08/18 00:37:04;;;;;;;1.95;0.88;;;;;;;;;;10371569;28;20645;-85
2023/08/18 00:42:08;;;;;;;1.17;0.82;;;;;;;;;;10373342;28;20046;-85
2023/08/18 00:47:12;;;;;;;1.33;0.90;;;;;;;;;;10376632;28;20107;-84
2023/08/18 00:52:18;;;;;;;2.70;0.82;;;;;;;;;;10368601;28;20103;-85
2023/08/18 00:57:23;;;;;;;6.82;0.98;;;;;;;;;;10368867;28;20057;-85
2023/08/18 01:02:26;;;;;;;2.05;0.98;;;;;;;;;;10372883;28;20049;-85
2023/08/18 01:07:31;;;;;;;4.90;1.02;;;;;;;;;;10364377;28;20052;-84
2023/08/18 01:12:43;;;;;;;1.30;0.90;;;;;;;;;;10356682;28;20140;-84
2023/08/18 01:17:51;;;;;;;1.05;0.75;;;;;;;;;;10370409;28;20051;-86
2023/08/18 01:22:57;;;;;;;2.08;0.90;;;;;;;;;;10376495;28;20100;-85
2023/08/18 01:28:03;;;;;;;1.88;0.70;;;;;;;;;;10380086;28;20049;-85
2023/08/18 01:33:10;;;;;;;;;;;;;;;;;;10365765;28;20045;-86
2023/08/18 01:38:16;;;;;;;2.88;1.30;;;;;;;;;;10362617;28;19921;-85
2023/08/18 01:43:20;;;;;;;4.28;1.45;;;;;;;;;;10377120;28;20129;-86
2023/08/18 01:48:24;;;;;;;6.50;1.90;;;;;;;;;;10351231;28;20475;-86
2023/08/18 01:53:29;;;;;;;4.00;1.42;;;;;;;;;;10391455;28;20133;-86
2023/08/18 01:58:32;;;;;;;2.42;1.08;;;;;;;;;;10345493;28;20132;-86
2023/08/18 02:03:35;;;;;;;5.53;1.35;;;;;;;;;;10362949;28;20192;-86
2023/08/18 02:08:40;;;;;;;1.75;1.38;;;;;;;;;;10345000;28;20030;-85
2023/08/18 02:13:43;;;;;;;1.95;1.00;;;;;;;;;;10362839;28;20132;-85
2023/08/18 02:18:47;;;;;;;3.00;1.55;;;;;;;;;;10357901;28;20498;-85
2023/08/18 02:23:52;;;;;;;3.22;1.05;;;;;;;;;;10374386;28;20895;-86
2023/08/18 02:28:56;;;;;;;1.90;1.40;;;;;;;;;;10369637;28;20469;-86
2023/08/18 02:33:59;;;;;;;1.30;1.20;;;;;;;;;;10372376;28;20169;-85
2023/08/18 02:39:04;;;;;;;1.35;1.17;;;;;;;;;;10379310;28;20037;-86
2023/08/18 02:44:08;;;;;;;1.30;1.20;;;;;;;;;;10368361;28;20077;-85
2023/08/18 02:49:11;;;;;;;1.70;1.35;;;;;;;;;;10372891;28;20374;-85
2023/08/18 02:54:16;;;;;;;1.55;1.20;;;;;;;;;;10351086;28;20553;-85
2023/08/18 02:59:19;;;;;;;1.07;0.73;;;;;;;;;;10374736;28;20069;-85
2023/08/18 03:04:23;;;;;;;2.75;1.20;;;;;;;;;;10378157;28;20139;-85
2023/08/18 03:09:27;;;;;;;1.50;1.27;;;;;;;;;;10364899;28;20041;-85
2023/08/18 03:14:31;;;;;;;1.23;1.05;;;;;;;;;;10371462;28;20050;-85
2023/08/18 03:19:34;;;;;;;2.22;1.10;;;;;;;;;;10357377;28;20132;-85
2023/08/18 03:24:39;;;;;;;3.13;0.98;;;;;;;;;;10367541;28;20837;-85
2023/08/18 03:29:42;;;;;;;2.67;1.15;;;;;;;;;;10378105;28;20783;-84
2023/08/18 03:34:47;;;;;;;0.75;0.75;;;;;;;;;;10383789;28;20065;-86
2023/08/18 03:39:54;;;;;;;2.42;1.10;;;;;;;;;;10367391;28;20030;-85
2023/08/18 03:44:57;;;;;;;1.33;1.13;;;;;;;;;;10380873;28;20111;-86
2023/08/18 03:50:02;;;;;;;1.00;1.00;;;;;;;;;;10371199;28;20558;-85
2023/08/18 03:55:09;;;;;;;2.65;1.15;;;;;;;;;;10363132;28;20437;-85
2023/08/18 04:00:14;;;;;;;3.00;1.20;;;;;;;;;;10363047;28;20113;-85
2023/08/18 04:05:18;;;;;;;3.75;1.65;;;;;;;;;;10364295;28;20046;-85
2023/08/18 04:10:23;;;;;;;1.80;1.30;;;;;;;;;;10368286;28;20038;-85
2023/08/18 04:15:27;;;;;;;2.05;1.30;;;;;;;;;;10353258;28;20761;-85
2023/08/18 04:20:31;;;;;;;1.20;1.10;;;;;;;;;;10364624;28;20053;-86
2023/08/18 04:25:36;;;;;;;1.60;1.15;;;;;;;;;;10371357;28;20053;-86
2023/08/18 04:30:40;;;;;;;2.00;1.27;;;;;;;;;;10364283;28;20103;-85
2023/08/18 04:35:49;;;;;;;1.77;1.50;;;;;;;;;;10358910;28;20041;-86
2023/08/18 04:41:02;;;;;;;2.60;1.90;;;;;;;;;;10359127;28;20049;-85
2023/08/18 04:46:06;;;;;;;1.52;1.40;;;;;;;;;;10366676;28;20080;-85
2023/08/18 04:51:10;;;;;;;1.55;1.45;;;;;;;;;;10360180;28;20325;-85
2023/08/18 04:56:15;;;;;;;1.92;1.45;;;;;;;;;;10352415;28;20045;-85
2023/08/18 05:01:18;;;;;;;2.28;1.75;;;;;;;;;;10355114;28;20050;-85
2023/08/18 05:06:22;;;;;;;3.50;1.55;;;;;;;;;;10363396;28;20125;-85
2023/08/18 05:11:27;;;;;;;1.40;1.30;;;;;;;;;;10371710;28;20077;-83
2023/08/18 05:16:30;;;;;;;1.85;1.50;;;;;;;;;;10380696;28;20120;-83
2023/08/18 05:21:34;;;;;;;5.70;1.25;;;;;;;;;;10387099;28;20042;-85
2023/08/18 05:26:38;;;;;;;2.22;1.60;;;;;;;;;;10370130;28;20125;-84
2023/08/18 05:31:42;;;;;;;2.13;1.42;;;;;;;;;;10365505;28;20100;-83
2023/08/18 05:36:45;;;;;;;3.35;1.60;;;;;;;;;;10355404;28;20063;-85
2023/08/18 05:41:50;;;;;;;2.00;1.45;;;;;;;;;;10375330;28;20137;-84
2023/08/18 05:46:53;;;;;;;1.65;1.55;;;;;;;;;;10362064;28;20046;-85
2023/08/18 05:51:57;;;;;;;2.83;1.55;;;;;;;;;;10380953;28;20129;-85
2023/08/18 05:57:02;;;;;;;1.85;1.48;;;;;;;;;;10373849;28;20583;-84
2023/08/18 06:02:06;;;;;;;2.25;1.60;;;;;;;;;;10403562;28;20045;-84
2023/08/18 06:07:10;;;;;;;1.48;1.23;;;;;;;;;;10383740;28;20565;-84
2023/08/18 06:12:15;;;;;;;2.42;1.70;;;;;;;;;;10365029;28;20065;-85
2023/08/18 06:17:19;;;;;;;1.75;1.55;;;;;;;;;;10383372;28;20050;-84
2023/08/18 06:22:22;;;;;;;2.03;1.48;;;;;;;;;;10376326;28;20069;-84
2023/08/18 06:27:27;;;;;;;1.25;1.15;;;;;;;;;;10387475;28;20034;-84
2023/08/18 06:32:30;;;;;;;1.50;1.40;;;;;;;;;;10388170;28;20104;-84
2023/08/18 06:37:33;;;;;;;1.88;1.67;;;;;;;;;;10404365;28;20075;-84
2023/08/18 06:42:38;;;;;;;1.30;1.05;;;;;;;;;;10395495;28;20046;-84
2023/08/18 06:47:41;;;;;;;2.08;1.05;;;;;;;;;;10391719;28;20344;-84
2023/08/18 06:52:45;;;;;;;1.85;1.10;;;;;;;;;;10386115;28;20073;-84
2023/08/18 06:57:50;;;;;;;1.10;1.05;;;;;;;;;;10367134;28;20108;-84
2023/08/18 07:02:54;;;;;;;1.07;1.00;;;;;;;;;;10428936;23;20045;-85
2023/08/18 07:07:57;;;;;;;2.25;1.10;;;;;;;;;;10356313;28;20219;-86
2023/08/18 07:13:03;;;;;;;1.83;1.05;;;;;;;;;;10365965;28;20041;-85
2023/08/18 07:18:07;;;;;;;0.88;0.88;;;;;;;;;;10343756;28;20499;-85
2023/08/18 07:23:11;;;;;;;1.98;1.77;;;;;;;;;;10360851;28;20056;-85
2023/08/18 07:28:15;;;;;;;1.33;1.20;;;;;;;;;;10353601;28;20078;-86
2023/08/18 07:33:19;;;;;;;1.73;1.30;;;;;;;;;;10362780;28;20037;-86
2023/08/18 07:38:23;;;;;;;1.05;1.00;;;;;;;;;;10357762;28;20125;-86
2023/08/18 07:43:27;;;;;;;1.42;1.30;;;;;;;;;;10344285;28;20492;-85
2023/08/18 07:48:33;;;;;;;1.30;1.20;;;;;;;;;;10365379;28;20050;-86
2023/08/18 07:53:37;;;;;;;1.63;1.42;;;;;;;;;;10360435;28;20531;-86
2023/08/18 07:58:42;;;;;;;1.25;1.15;;;;;;;;;;10341822;28;20050;-83
2023/08/18 08:03:45;;;;;;;2.70;2.50;;;;;;;;;;10340837;28;20507;-83
2023/08/18 08:08:49;;;;;;;2.30;1.75;;;;;;;;;;10340600;28;20050;-83
2023/08/18 08:13:54;;;;;;;2.08;1.88;;;;;;;;;;10333642;28;20054;-83
2023/08/18 08:18:58;;;;;;;2.33;1.10;;;;;;;;;;10357556;28;20037;-82
2023/08/18 08:24:01;;;;;;;1.27;1.17;;;;;;;;;;10339684;28;20572;-83
2023/08/18 08:29:06;;;;;;;1.40;1.30;;;;;;;;;;10339846;28;20046;-83
2023/08/18 08:34:10;;;;;;;3.07;1.47;;;;;;;;;;10342219;28;20050;-83
2023/08/18 08:39:15;;;;;;;1.65;1.50;;;;;;;;;;10350935;28;20033;-83
2023/08/18 08:44:20;;;;;;;2.55;1.85;;;;;;;;;;10346861;28;20593;-83
2023/08/18 08:49:26;;;;;;;2.30;2.03;;;;;;;;;;10357314;28;20137;-83
2023/08/18 08:54:31;;;;;;;3.95;2.83;;;;;;;;;;10346879;28;20720;-83
2023/08/18 08:59:36;;;;;;;2.47;1.60;;;;;;;;;;10356530;28;20137;-83
2023/08/18 09:04:40;;;;;;;1.50;1.40;;;;;;;;;;10356218;28;20577;-82
2023/08/18 09:09:44;;;;;;;3.88;2.30;;;;;;;;;;10338300;28;20459;-82
2023/08/18 09:14:50;;;;;;;3.58;2.67;;;;;;;;;;10356056;28;20050;-82
2023/08/18 09:19:56;;;;;;;2.80;2.17;;;;;;;;;;10348001;28;20034;-83
2023/08/18 09:25:01;;;;;;;2.50;2.30;;;;;;;;;;10355929;28;20049;-83
2023/08/18 09:30:07;;;;;;;2.40;2.13;;;;;;;;;;10336747;28;20045;-82
2023/08/18 09:35:12;;;;;;;1.67;1.58;;;;;;;;;;10346980;28;20046;-84
2023/08/18 09:40:16;;;;;;;2.57;2.37;;;;;;;;;;10346997;28;20053;-84
2023/08/18 09:45:23;;;;;;;2.63;2.42;;;;;;;;;;10342050;28;20088;-83
2023/08/18 09:50:31;;;;;;;3.58;2.20;;;;;;;;;;10347458;28;20060;-87
2023/08/18 09:55:37;;;;;;;3.42;3.13;;;;;;;;;;10339043;28;20056;-85
2023/08/18 10:00:45;;;;;;;3.55;3.08;;;;;;;;;;10345479;28;20232;-84
2023/08/18 10:05:49;;;;;;;3.08;2.75;;;;;;;;;;10339477;28;20097;-84
2023/08/18 10:10:52;;;;;;;2.22;2.03;;;;;;;;;;10338778;28;20070;-84
2023/08/18 10:15:57;;;;;;;3.60;2.35;;;;;;;;;;10345211;28;20046;-82
2023/08/18 10:21:01;;;;;;;3.08;2.50;;;;;;;;;;10337582;28;20042;-82
2023/08/18 10:26:04;;;;;;;3.05;2.50;;;;;;;;;;10336558;28;20485;-82
2023/08/18 10:31:11;;;;;;;4.97;2.17;;;;;;;;;;10329934;28;20073;-84
2023/08/18 10:36:21;;;;;;;2.20;1.85;;;;;;;;;;10337880;28;20053;-84
2023/08/18 10:41:28;;;;;;;1.90;1.80;;;;;;;;;;10361842;28;20042;-85
2023/08/18 10:46:37;;;;;;;1.80;1.52;;;;;;;;;;10344401;28;20511;-83
2023/08/18 10:51:44;;;;;;;5.00;1.98;;;;;;;;;;10362275;28;20073;-84
2023/08/18 10:56:50;;;;;;;3.35;2.17;;;;;;;;;;10344836;28;20252;-84
2023/08/18 11:01:55;;;;;;;1.70;1.60;;;;;;;;;;10343506;28;20042;-84
2023/08/18 11:06:58;;;;;;;2.78;1.60;;;;;;;;;;10342736;28;20042;-84
2023/08/18 11:12:03;;;;;;;2.53;1.88;;;;;;;;;;10343922;28;20499;-84
2023/08/18 11:17:08;;;;;;;1.88;1.67;;;;;;;;;;10344322;28;20420;-84
2023/08/18 11:22:14;;;;;;;;;;;;;;;;;;10343990;28;20267;-84
2023/08/18 11:27:17;;;;;;;2.15;1.27;;;;;;;;;;10360529;28;19928;-84
2023/08/18 11:32:22;;;;;;;2.80;1.58;;;;;;;;;;10346811;28;20129;-84
2023/08/18 11:37:27;;;;;;;2.55;1.48;;;;;;;;;;10343131;28;20125;-85
2023/08/18 11:42:33;;;;;;;2.63;1.70;;;;;;;;;;10341912;28;20115;-83
2023/08/18 11:47:38;;;;;;;2.22;1.85;;;;;;;;;;10342548;28;20474;-84
2023/08/18 11:52:42;;;;;;;1.63;1.48;;;;;;;;;;10341249;28;20042;-84
2023/08/18 11:57:46;;;;;;;;;;;;;;;;;;10343128;28;20042;-84
2023/08/18 12:02:51;;;;;;;2.07;1.50;;;;;;;;;;10341427;28;19921;-84
2023/08/18 12:07:55;;;;;;;2.03;1.50;;;;;;;;;;10343066;28;20041;-84
2023/08/18 12:12:58;;;;;;;5.20;1.77;;;;;;;;;;10359644;28;20458;-84
2023/08/18 12:18:03;;;;;;;1.58;1.38;;;;;;;;;;10341179;28;20309;-84
2023/08/18 12:23:07;;;;;;;2.72;1.40;;;;;;;;;;10341171;28;20045;-84
2023/08/18 12:28:10;;;;;;;3.13;1.38;;;;;;;;;;10358898;28;20068;-85
2023/08/18 12:33:15;;;;;;;1.90;1.35;;;;;;;;;;10341880;28;20486;-84
2023/08/18 12:38:18;;;;;;;3.10;1.65;;;;;;;;;;10358467;28;20038;-84
2023/08/18 12:43:22;;;;;;;2.20;1.40;;;;;;;;;;10340133;28;20081;-84
2023/08/18 12:48:29;;;;;;;1.42;1.33;;;;;;;;;;10340082;28;20096;-85
2023/08/18 12:53:32;;;;;;;1.63;1.40;;;;;;;;;;10345491;28;20472;-84
2023/08/18 12:58:36;;;;;;;2.17;1.60;;;;;;;;;;10356831;28;20132;-84
2023/08/18 13:03:41;;;;;;;3.38;1.45;;;;;;;;;;10372192;23;20044;-83
2023/08/18 13:08:45;;;;;;;1.77;1.15;;;;;;;;;;10369989;28;20065;-83
2023/08/18 13:13:48;;;;;;;1.90;1.37;;;;;;;;;;10377215;28;20509;-83
2023/08/18 13:18:53;;;;;;;2.78;1.40;;;;;;;;;;10353109;28;20033;-84
2023/08/18 13:23:56;;;;;;;2.63;1.60;;;;;;;;;;10399774;28;20049;-83
2023/08/18 13:28:59;;;;;;;2.03;1.50;;;;;;;;;;10353987;28;20073;-84
2023/08/18 13:34:05;;;;;;;1.40;1.30;;;;;;;;;;10347266;28;20402;-84
2023/08/18 13:39:08;;;;;;;2.28;1.40;;;;;;;;;;10378556;28;20088;-83
2023/08/18 13:44:11;;;;;;;1.48;1.20;;;;;;;;;;10349126;28;20155;-84
2023/08/18 13:49:16;;;;;;;1.98;1.48;;;;;;;;;;10371590;28;20124;-84
2023/08/18 13:54:19;;;;;;;1.10;1.00;;;;;;;;;;10333228;28;20124;-83
2023/08/18 13:59:23;;;;;;;2.55;1.20;;;;;;;;;;10367881;28;20073;-83
2023/08/18 14:04:27;;;;;;;1.75;1.20;;;;;;;;;;10392714;28;20042;-83
2023/08/18 14:09:33;;;;;;;1.80;1.30;;;;;;;;;;10357164;28;20138;-83
2023/08/18 14:14:36;;;;;;;4.00;1.48;;;;;;;;;;10333520;28;20128;-84
2023/08/18 14:19:41;;;;;;;1.67;1.27;;;;;;;;;;10397222;28;20057;-84
2023/08/18 14:24:44;;;;;;;2.90;1.70;;;;;;;;;;10362808;28;20048;-83
2023/08/18 14:29:48;;;;;;;1.63;1.17;;;;;;;;;;10355912;28;20049;-83
2023/08/18 14:34:55;;;;;;;1.10;1.00;;;;;;;;;;10389817;28;20057;-84
2023/08/18 14:39:59;;;;;;;2.05;1.10;;;;;;;;;;10366598;28;20128;-84
2023/08/18 14:45:03;;;;;;;3.08;1.73;;;;;;;;;;10359584;28;20637;-83
2023/08/18 14:50:09;;;;;;;1.80;1.40;;;;;;;;;;10380739;28;20038;-84
2023/08/18 14:55:12;;;;;;;2.58;1.10;;;;;;;;;;10383280;28;20076;-84
2023/08/18 15:00:16;;;;;;;1.65;1.00;;;;;;;;;;10385888;28;20065;-84
2023/08/18 15:05:23;;;;;;;1.77;0.80;;;;;;;;;;10385964;28;20048;-83
2023/08/18 15:10:26;;;;;;;2.08;1.20;;;;;;;;;;10358713;28;20077;-83
2023/08/18 15:15:29;;;;;;;2.38;1.02;;;;;;;;;;10351876;28;20049;-83
2023/08/18 15:20:35;;;;;;;2.83;0.95;;;;;;;;;;10392905;28;20061;-83
2023/08/18 15:25:38;;;;;;;1.95;1.08;;;;;;;;;;10363867;28;20117;-83
2023/08/18 15:30:41;;;;;;;1.48;1.13;;;;;;;;;;10352217;28;20069;-83
2023/08/18 15:35:46;;;;;;;2.45;1.05;;;;;;;;;;10356323;28;20479;-83
2023/08/18 15:40:49;;;;;;;;;;;;;;;;;;10342616;28;20037;-83
2023/08/18 15:45:52;;;;;;;2.03;0.80;;;;;;;;;;10392624;28;20039;-83
2023/08/18 15:50:57;;;;;;;3.10;0.90;;;;;;;;;;10379841;28;20072;-84
2023/08/18 15:56:00;;;;;;;2.55;1.13;;;;;;;;;;10346357;28;20136;-84
2023/08/18 16:01:04;;;;;;;1.83;0.95;;;;;;;;;;10355961;28;20695;-83
2023/08/18 16:06:09;;;;;;;1.33;0.82;;;;;;;;;;10391977;28;20550;-83
2023/08/18 16:11:12;;;;;;;1.23;0.85;;;;;;;;;;10360141;28;20137;-83
2023/08/18 16:16:16;;;;;;;2.10;1.35;;;;;;;;;;10351482;28;20064;-83
2023/08/18 16:21:20;;;;;;;2.05;1.05;;;;;;;;;;10340498;28;20072;-83
2023/08/18 16:26:24;;;;;;;1.75;1.17;;;;;;;;;;10349293;28;20048;-83
2023/08/18 16:31:27;;;;;;;1.38;0.93;;;;;;;;;;10348329;28;20093;-83
2023/08/18 16:36:31;;;;;;;1.20;1.10;;;;;;;;;;10333147;28;20049;-83
2023/08/18 16:41:35;;;;;;;2.08;1.27;;;;;;;;;;10373320;28;20045;-82
2023/08/18 16:46:39;;;;;;;1.35;1.00;;;;;;;;;;10376032;28;20405;-83
2023/08/18 16:51:45;;;;;;;1.73;1.00;;;;;;;;;;10366574;28;20710;-82
2023/08/18 16:56:48;;;;;;;1.30;0.75;;;;;;;;;;10355029;28;20281;-83
2023/08/18 17:01:52;;;;;;;2.58;1.20;;;;;;;;;;10384730;28;20056;-83
2023/08/18 17:06:57;;;;;;;1.63;1.02;;;;;;;;;;10386163;28;20045;-83
2023/08/18 17:12:00;;;;;;;;;;;;;;;;;;10354629;28;20140;-83
2023/08/18 17:17:03;;;;;;;2.33;1.02;;;;;;;;;;10376190;28;20012;-83
2023/08/18 17:22:08;;;;;;;2.03;1.27;;;;;;;;;;10363611;28;20454;-83
2023/08/18 17:27:12;;;;;;;1.50;1.15;;;;;;;;;;10338340;28;20121;-83
2023/08/18 17:32:15;;;;;;;1.77;0.88;;;;;;;;;;10345482;28;20808;-83
2023/08/18 17:37:20;;;;;;;1.60;1.10;;;;;;;;;;10368339;28;20057;-83
2023/08/18 17:42:23;;;;;;;5.32;1.27;;;;;;;;;;10375027;28;20069;-83
2023/08/18 17:47:26;;;;;;;1.50;0.95;;;;;;;;;;10395796;28;20069;-83
2023/08/18 17:52:31;;;;;;;4.13;1.10;;;;;;;;;;10361351;28;20068;-83
2023/08/18 17:57:34;;;;;;;2.13;1.40;;;;;;;;;;10378482;28;20046;-83
2023/08/18 18:02:38;;;;;;;2.47;1.20;;;;;;;;;;10353210;28;20118;-83
2023/08/18 18:07:42;;;;;;;1.50;1.02;;;;;;;;;;10358060;28;20766;-83
2023/08/18 18:12:46;;;;;;;2.38;1.10;;;;;;;;;;10338684;28;20080;-83
2023/08/18 18:17:50;;;;;;;2.13;1.15;;;;;;;;;;10346516;28;20046;-82
2023/08/18 18:22:54;;;;;;;1.50;1.00;;;;;;;;;;10369478;28;20549;-83
2023/08/18 18:27:57;;;;;;;3.03;1.50;;;;;;;;;;10374555;28;20124;-83
2023/08/18 18:33:01;;;;;;;2.22;1.60;;;;;;;;;;10354228;28;20046;-83
2023/08/18 18:38:06;;;;;;;1.92;1.27;;;;;;;;;;10336615;28;20073;-83
2023/08/18 18:43:09;;;;;;;2.47;1.40;;;;;;;;;;10368224;28;20042;-83
2023/08/18 18:48:12;;;;;;;3.45;1.50;;;;;;;;;;10363020;28;20069;-83
2023/08/18 18:53:17;;;;;;;3.38;1.30;;;;;;;;;;10369068;28;20053;-83
2023/08/18 18:58:21;;;;;;;2.55;1.30;;;;;;;;;;10378039;28;20475;-83
2023/08/18 19:03:24;;;;;;;4.78;1.70;;;;;;;;;;10341508;28;20044;-83
2023/08/18 19:08:29;;;;;;;4.32;1.40;;;;;;;;;;10360941;28;20041;-83
2023/08/18 19:13:33;;;;;;;2.45;1.38;;;;;;;;;;10347664;28;20065;-83
2023/08/18 19:18:37;;;;;;;6.13;1.90;;;;;;;;;;10357281;28;20050;-82
2023/08/18 19:23:44;;;;;;;2.47;1.70;;;;;;;;;;10344474;28;20716;-83
2023/08/18 19:28:47;;;;;;;5.57;1.58;;;;;;;;;;10397528;28;20041;-83
2023/08/18 19:33:51;;;;;;;2.22;1.73;;;;;;;;;;10390507;28;20525;-83
2023/08/18 19:38:57;;;;;;;2.92;1.45;;;;;;;;;;10352155;28;20114;-82
2023/08/18 19:44:00;;;;;;;2.70;1.40;;;;;;;;;;10356571;28;20041;-83
2023/08/18 19:49:04;;;;;;;3.88;1.88;;;;;;;;;;10353009;28;20145;-82
2023/08/18 19:54:09;;;;;;;2.38;1.75;;;;;;;;;;10356240;28;20046;-83
2023/08/18 19:59:12;;;;;;;3.67;1.55;;;;;;;;;;10383587;28;20133;-83
2023/08/18 20:04:15;;;;;;;1.77;1.45;;;;;;;;;;10354086;28;20761;-83
2023/08/18 20:09:20;;;;;;;2.50;1.45;;;;;;;;;;10343769;28;20403;-83
2023/08/18 20:14:23;;;;;;;2.20;1.70;;;;;;;;;;10377959;28;20129;-83
2023/08/18 20:19:27;;;;;;;3.28;1.27;;;;;;;;;;10357686;28;20643;-83
2023/08/18 20:24:32;;;;;;;2.10;1.20;;;;;;;;;;10339564;28;20403;-83
2023/08/18 20:29:36;;;;;;;2.85;1.45;;;;;;;;;;10356058;28;20670;-82
2023/08/18 20:34:39;;;;;;;1.30;1.20;;;;;;;;;;10355989;28;20125;-83
2023/08/18 20:39:45;;;;;;;3.13;1.40;;;;;;;;;;10335942;28;20048;-83
2023/08/18 20:44:48;;;;;;;1.42;1.33;;;;;;;;;;10355575;28;20129;-83
2023/08/18 20:49:52;;;;;;;2.25;1.50;;;;;;;;;;10371301;28;20461;-83
2023/08/18 20:54:56;;;;;;;3.65;1.65;;;;;;;;;;10389735;28;20135;-82
2023/08/18 21:00:00;;;;;;;2.08;1.35;;;;;;;;;;10346302;28;20132;-83
2023/08/18 21:05:03;;;;;;;4.00;1.40;;;;;;;;;;10373799;28;20064;-82
2023/08/18 21:10:11;;;;;;;2.30;1.58;;;;;;;;;;10336706;28;20048;-83
2023/08/18 21:15:14;;;;;;;3.58;1.50;;;;;;;;;;10369756;28;20065;-83
2023/08/18 21:20:18;;;;;;;3.63;1.58;;;;;;;;;;10370193;28;20046;-83
2023/08/18 21:25:23;;;;;;;3.13;1.90;;;;;;;;;;10369846;28;21526;-83
2023/08/18 21:30:26;;;;;;;3.28;1.50;;;;;;;;;;10341361;28;20056;-82
2023/08/18 21:35:29;;;;;;;2.25;1.30;;;;;;;;;;10370935;28;20037;-82
2023/08/18 21:40:35;;;;;;;1.98;1.23;;;;;;;;;;10344051;28;20141;-82
2023/08/18 21:45:39;;;;;;;1.83;1.42;;;;;;;;;;10380636;28;20048;-83
2023/08/18 21:50:42;;;;;;;4.53;1.60;;;;;;;;;;10377252;28;20069;-83
2023/08/18 21:55:46;;;;;;;2.78;1.33;;;;;;;;;;10373221;28;20033;-83
2023/08/18 22:00:50;;;;;;;3.28;1.63;;;;;;;;;;10347304;28;20065;-82
2023/08/18 22:05:53;;;;;;;3.15;1.23;;;;;;;;;;10380738;28;20097;-84
2023/08/18 22:10:58;;;;;;;3.05;1.67;;;;;;;;;;10362721;28;20096;-83
2023/08/18 22:16:01;;;;;;;2.17;1.20;;;;;;;;;;10381030;28;20066;-82
2023/08/18 22:21:07;;;;;;;1.88;1.20;;;;;;;;;;10347358;28;20046;-82
2023/08/18 22:26:12;;;;;;;3.33;1.33;;;;;;;;;;10355775;28;20073;-83
2023/08/18 22:31:15;;;;;;;2.95;1.50;;;;;;;;;;10332475;28;20081;-83
2023/08/18 22:36:19;;;;;;;1.70;1.25;;;;;;;;;;10361612;28;20053;-83
2023/08/18 22:41:23;;;;;;;2.35;1.27;;;;;;;;;;10358432;28;20128;-82
2023/08/18 22:46:27;;;;;;;4.43;1.30;;;;;;;;;;10388928;28;20080;-83
2023/08/18 22:51:31;;;;;;;1.95;1.33;;;;;;;;;;10391781;28;20477;-82
2023/08/18 22:56:35;;;;;;;4.82;1.63;;;;;;;;;;10386243;28;20057;-82
2023/08/18 23:01:38;;;;;;;1.90;1.50;;;;;;;;;;10348665;28;20141;-83
2023/08/18 23:06:42;;;;;;;2.28;1.10;;;;;;;;;;10363013;28;20041;-82
2023/08/18 23:11:47;;;;;;;1.60;1.13;;;;;;;;;;10360699;28;20077;-83
2023/08/18 23:16:51;;;;;;;2.40;1.20;;;;;;;;;;10378179;28;20121;-83
2023/08/18 23:21:54;;;;;;;2.25;1.25;;;;;;;;;;10392894;28;20547;-83
2023/08/18 23:26:59;;;;;;;2.08;1.10;;;;;;;;;;10387237;28;20065;-83
2023/08/18 23:32:20;;;;;;;3.95;1.10;;;;;;;;;;10352524;28;20113;-83
2023/08/18 23:37:24;;;;;;;2.45;1.42;;;;;;;;;;10370938;28;20138;-83
2023/08/18 23:42:28;;;;;;;1.40;1.15;;;;;;;;;;10351034;28;20141;-82
2023/08/18 23:47:32;;;;;;;1.27;0.98;;;;;;;;;;10341577;28;20460;-81
2023/08/18 23:52:36;;;;;;;2.10;1.40;;;;;;;;;;10358141;28;20061;-83
2023/08/18 23:57:40;;;;;;;3.67;1.20;;;;;;;;;;10359012;28;20037;-82
